Valparaiso, Indiana
Current Conditions -  °F | °C
As of 6:56 PM on Friday 21 Nov 2014 (Local Time) from KVPZ Reporting Station
Clear Clear  
Wind Chill: 15°   Ceiling: Unl
Heat Index: 25°   Visibility: 10mi
Dew Point: 11°   Wind: 10mph
Humidity: 55%   Direction: 150°SSE
Pressure: 30.34"   Gusts: NA
Location:  41.47°N, 87.06°W
Report Text: KVPZ 220056Z AUTO 15009KT 10SM CLR M04/M12 A3034 RMK AO2 SLP287 T10391117 TSNO
Loading
Personal Weather Stations






























Interactive Weather Map New forecast layout! Learn more

10-Day Weather Forecast

Advertisements
Track Severe Weather on mobile